createdAt,value
2022-12-08T00:00:25.848Z,83.19
2022-12-08T00:02:52.541Z,83.26
2022-12-08T00:05:38.109Z,84.15
2022-12-08T00:08:24.726Z,83.21
2022-12-08T00:10:51.309Z,83.11
2022-12-08T00:13:17.869Z,83.73
2022-12-08T00:15:44.448Z,83.45
2022-12-08T00:18:11.019Z,83.71
2022-12-08T00:20:37.564Z,83.88
2022-12-08T00:23:04.400Z,84.00
2022-12-08T00:25:35.918Z,83.50
2022-12-08T00:28:02.549Z,83.62
2022-12-08T00:30:29.064Z,83.48
2022-12-08T00:32:55.600Z,83.65
2022-12-08T00:35:22.150Z,83.79
2022-12-08T00:37:48.663Z,83.00
2022-12-08T00:40:15.234Z,83.07
2022-12-08T00:42:43.116Z,83.22
2022-12-08T00:45:10.675Z,83.61
2022-12-08T00:47:37.201Z,83.03
2022-12-08T00:50:04.360Z,83.06
2022-12-08T00:52:31.078Z,83.70
2022-12-08T00:54:57.592Z,83.96
2022-12-08T00:57:24.219Z,83.39
2022-12-08T00:59:52.097Z,83.66
2022-12-08T01:02:18.659Z,84.06
2022-12-08T01:04:45.306Z,83.77
2022-12-08T01:07:11.838Z,83.29
2022-12-08T01:09:38.434Z,83.12
2022-12-08T01:12:05.856Z,83.23
2022-12-08T01:14:32.940Z,83.53
2022-12-08T01:17:00.845Z,83.29
2022-12-08T01:19:27.502Z,83.85
2022-12-08T01:21:54.022Z,83.39
2022-12-08T01:24:21.461Z,83.26
2022-12-08T01:26:49.023Z,83.77
2022-12-08T01:29:15.621Z,83.37
2022-12-08T01:31:42.285Z,83.88
2022-12-08T01:34:11.300Z,84.08
2022-12-08T01:36:38.496Z,83.78
2022-12-08T01:39:08.012Z,83.69
2022-12-08T01:41:37.416Z,83.29
2022-12-08T01:44:42.540Z,83.72
2022-12-08T01:47:09.815Z,83.47
2022-12-08T01:49:37.766Z,83.74
2022-12-08T01:52:11.191Z,83.76
2022-12-08T01:54:42.015Z,83.43
2022-12-08T01:57:11.725Z,83.62
2022-12-08T01:59:41.471Z,83.77
2022-12-08T02:02:09.088Z,83.13
2022-12-08T02:04:37.593Z,83.30
2022-12-08T02:07:08.115Z,83.76
2022-12-08T02:09:35.585Z,83.54
2022-12-08T02:12:02.235Z,83.79
2022-12-08T02:14:28.803Z,83.42
2022-12-08T02:17:04.302Z,83.80
2022-12-08T02:19:56.885Z,83.85
2022-12-08T02:22:29.879Z,83.08
2022-12-08T02:25:10.334Z,83.66
2022-12-08T02:27:42.583Z,83.23
2022-12-08T02:30:18.803Z,83.41
2022-12-08T02:33:26.815Z,83.35
2022-12-08T02:35:58.959Z,83.20
2022-12-08T02:38:38.454Z,83.64
2022-12-08T02:41:16.506Z,83.29
2022-12-08T02:43:47.242Z,83.42
2022-12-08T02:46:18.956Z,83.42
2022-12-08T02:48:45.789Z,83.78
2022-12-08T02:51:13.883Z,83.83
2022-12-08T02:53:41.285Z,83.89
2022-12-08T02:56:21.159Z,83.16
2022-12-08T02:59:10.316Z,83.30
2022-12-08T03:01:53.951Z,83.89
2022-12-08T03:04:24.332Z,83.87
2022-12-08T03:06:59.222Z,83.69
2022-12-08T03:09:33.918Z,83.31
2022-12-08T03:12:06.487Z,83.37
2022-12-08T03:14:34.655Z,83.21
2022-12-08T03:17:02.913Z,83.37
2022-12-08T03:19:34.750Z,83.41
2022-12-08T03:22:05.011Z,83.55
2022-12-08T03:24:35.083Z,83.76
2022-12-08T03:27:04.771Z,83.31
2022-12-08T03:29:32.376Z,83.47
2022-12-08T03:32:07.265Z,83.09
2022-12-08T03:34:35.765Z,83.59
2022-12-08T03:37:03.995Z,83.64
2022-12-08T03:39:30.516Z,83.09
2022-12-08T03:41:57.036Z,83.39
2022-12-08T03:44:23.556Z,83.93
2022-12-08T03:46:50.083Z,83.34
2022-12-08T03:49:16.613Z,83.82
2022-12-08T03:51:43.386Z,83.35
2022-12-08T03:54:11.315Z,83.63
2022-12-08T03:56:39.172Z,83.78
2022-12-08T03:59:07.419Z,83.28
2022-12-08T04:01:34.430Z,82.87
2022-12-08T04:04:01.093Z,83.79
2022-12-08T04:06:27.671Z,83.54
2022-12-08T04:08:54.401Z,83.00
2022-12-08T04:11:22.277Z,83.55
2022-12-08T04:13:49.182Z,83.09
2022-12-08T04:16:17.205Z,83.21
2022-12-08T04:18:43.838Z,83.62
2022-12-08T04:21:10.416Z,83.79
2022-12-08T04:23:37.038Z,83.55
2022-12-08T04:26:04.110Z,83.45
2022-12-08T04:28:32.057Z,83.41
2022-12-08T04:30:58.739Z,83.54
2022-12-08T04:33:25.445Z,83.67
2022-12-08T04:35:51.963Z,83.28
2022-12-08T04:38:18.573Z,83.54
2022-12-08T04:40:45.413Z,83.63
2022-12-08T04:43:11.981Z,83.63
2022-12-08T04:45:40.830Z,83.58
2022-12-08T04:48:07.588Z,83.81
2022-12-08T04:50:34.101Z,83.87
2022-12-08T04:53:00.687Z,83.48
2022-12-08T04:55:27.238Z,83.52
2022-12-08T04:57:53.749Z,83.18
2022-12-08T05:00:20.350Z,83.39
2022-12-08T05:02:48.270Z,83.58
2022-12-08T05:05:15.019Z,83.50
2022-12-08T05:07:41.760Z,83.03
2022-12-08T05:10:08.709Z,83.66
2022-12-08T05:12:35.247Z,82.90
2022-12-08T05:15:01.827Z,83.39
2022-12-08T05:17:28.361Z,83.23
2022-12-08T05:19:56.280Z,83.48
2022-12-08T05:22:22.854Z,81.35
2022-12-08T05:24:49.387Z,84.28
2022-12-08T05:27:15.926Z,83.81
2022-12-08T05:29:42.481Z,83.96
2022-12-08T05:32:09.217Z,83.69
2022-12-08T05:34:35.873Z,83.72
2022-12-08T05:37:03.768Z,83.62
2022-12-08T05:39:30.976Z,83.50
2022-12-08T05:41:57.488Z,83.30
2022-12-08T05:44:24.073Z,83.25
2022-12-08T05:46:50.617Z,83.57
2022-12-08T05:49:17.227Z,83.48
2022-12-08T05:51:44.129Z,83.67
2022-12-08T05:54:12.032Z,83.79
2022-12-08T05:56:38.547Z,83.23
2022-12-08T05:59:05.601Z,83.85
2022-12-08T06:01:32.385Z,83.61
2022-12-08T06:04:00.969Z,83.98
2022-12-08T06:06:28.081Z,83.56
2022-12-08T06:08:54.967Z,83.66
2022-12-08T06:11:24.811Z,83.60
2022-12-08T06:13:51.999Z,83.17
2022-12-08T06:16:19.224Z,83.75
2022-12-08T06:18:45.879Z,83.33
2022-12-08T06:21:14.493Z,83.88
2022-12-08T06:23:41.798Z,83.61
2022-12-08T06:26:10.809Z,83.64
2022-12-08T06:28:39.566Z,82.95
2022-12-08T06:31:08.570Z,83.54
2022-12-08T06:33:35.274Z,83.55
2022-12-08T06:36:01.804Z,83.37
2022-12-08T06:38:28.330Z,83.82
2022-12-08T06:40:55.405Z,83.59
2022-12-08T06:43:22.054Z,83.55
2022-12-08T06:45:50.172Z,83.01
2022-12-08T06:48:17.664Z,83.65
2022-12-08T06:50:44.457Z,83.21
2022-12-08T06:53:11.464Z,83.41
2022-12-08T06:58:24.506Z,83.84
2022-12-08T07:00:52.546Z,83.32
2022-12-08T07:03:19.208Z,83.38
2022-12-08T07:05:45.809Z,83.61
2022-12-08T07:08:12.664Z,83.19
2022-12-08T07:10:39.284Z,83.22
2022-12-08T07:13:05.819Z,83.50
2022-12-08T07:15:32.349Z,83.71
2022-12-08T07:18:00.704Z,83.53
2022-12-08T07:20:27.440Z,83.48
2022-12-08T07:22:54.062Z,83.74
2022-12-08T07:25:20.764Z,83.59
2022-12-08T07:27:47.767Z,83.44
2022-12-08T07:30:14.976Z,83.43
2022-12-08T07:32:41.572Z,83.78
2022-12-08T07:35:10.357Z,83.92
2022-12-08T07:37:37.946Z,83.29
2022-12-08T07:40:06.055Z,83.83
2022-12-08T07:42:33.152Z,83.79
2022-12-08T07:45:00.573Z,83.56
2022-12-08T07:47:27.117Z,83.74
2022-12-08T07:49:53.668Z,83.37
2022-12-08T07:52:21.541Z,83.25
2022-12-08T07:54:48.233Z,83.25
2022-12-08T07:57:14.898Z,83.67
2022-12-08T07:59:41.425Z,83.42
2022-12-08T08:02:24.423Z,83.63
2022-12-08T08:04:52.801Z,83.20
2022-12-08T08:07:20.763Z,82.97
2022-12-08T08:09:47.288Z,79.96
2022-12-08T08:12:30.907Z,79.76
2022-12-08T08:14:58.878Z,83.08
2022-12-08T08:17:25.568Z,83.36
2022-12-08T08:19:52.249Z,77.47
2022-12-08T08:22:18.839Z,77.69
2022-12-08T08:24:46.685Z,74.88
2022-12-08T08:27:13.929Z,71.60
2022-12-08T08:29:40.500Z,71.17
2022-12-08T08:32:07.061Z,77.96
2022-12-08T08:34:33.613Z,80.17
2022-12-08T08:37:00.223Z,70.95
2022-12-08T08:39:26.949Z,69.83
2022-12-08T08:41:54.809Z,77.71
2022-12-08T08:44:21.470Z,81.41
2022-12-08T08:46:48.122Z,72.30
2022-12-08T08:49:14.706Z,66.72
2022-12-08T08:51:42.143Z,64.11
2022-12-08T08:54:08.656Z,60.39
2022-12-08T08:56:35.236Z,74.83
2022-12-08T08:59:03.764Z,57.32
2022-12-08T09:01:30.837Z,62.60
2022-12-08T09:03:58.174Z,55.06
2022-12-08T09:06:25.586Z,57.00
2022-12-08T09:08:52.267Z,56.74
2022-12-08T09:11:18.957Z,51.91
2022-12-08T09:13:49.150Z,52.40
2022-12-08T09:16:17.944Z,55.42
2022-12-08T09:18:44.633Z,64.82
2022-12-08T09:21:15.265Z,69.46
2022-12-08T09:23:42.681Z,62.11
2022-12-08T09:26:09.554Z,71.40
2022-12-08T09:28:36.279Z,75.49
2022-12-08T09:31:03.101Z,64.18
2022-12-08T09:33:31.209Z,67.88
2022-12-08T09:36:02.736Z,65.55
2022-12-08T09:38:29.280Z,54.87
2022-12-08T09:40:56.257Z,56.28
2022-12-08T09:43:45.319Z,64.06
2022-12-08T09:46:15.003Z,55.50
2022-12-08T09:48:45.367Z,56.93
2022-12-08T09:51:14.727Z,67.12
2022-12-08T09:53:46.717Z,51.62
2022-12-08T09:56:16.105Z,49.05
2022-12-08T09:58:51.838Z,62.68
2022-12-08T10:01:19.959Z,59.75
2022-12-08T10:03:48.770Z,65.09
2022-12-08T10:06:21.510Z,69.09
2022-12-08T10:08:58.434Z,74.52
2022-12-08T10:11:32.013Z,76.03
2022-12-08T10:14:10.160Z,77.51
2022-12-08T10:16:40.272Z,78.39
2022-12-08T10:19:15.934Z,79.45
2022-12-08T10:21:42.658Z,78.11
2022-12-08T10:24:16.341Z,78.43
2022-12-08T10:26:43.253Z,73.10
2022-12-08T10:29:12.645Z,57.01
2022-12-08T10:31:39.406Z,62.00
2022-12-08T10:34:15.381Z,70.88
2022-12-08T10:36:49.855Z,58.24
2022-12-08T10:39:36.979Z,73.08
2022-12-08T10:42:11.851Z,77.25
2022-12-08T10:44:53.421Z,77.97
2022-12-08T10:47:22.197Z,66.49
2022-12-08T10:50:07.513Z,66.44
2022-12-08T10:52:38.930Z,73.46
2022-12-08T10:55:14.717Z,72.76
2022-12-08T10:57:41.302Z,75.13
2022-12-08T11:00:14.323Z,77.41
2022-12-08T11:02:54.007Z,78.49
2022-12-08T11:05:25.655Z,79.36
2022-12-08T11:07:54.837Z,79.65
2022-12-08T11:10:30.738Z,79.42
2022-12-08T11:13:00.184Z,80.03
2022-12-08T11:15:34.183Z,69.07
2022-12-08T11:18:07.790Z,69.51
2022-12-08T11:20:41.598Z,74.24
2022-12-08T11:23:21.051Z,68.96
2022-12-08T11:25:49.337Z,68.99
2022-12-08T11:28:20.677Z,67.33
2022-12-08T11:30:54.334Z,72.40
2022-12-08T11:33:23.480Z,78.22
2022-12-08T11:35:56.612Z,80.07
2022-12-08T11:38:25.220Z,72.34
2022-12-08T11:40:55.243Z,77.50
2022-12-08T11:43:31.366Z,76.76
2022-12-08T11:45:59.972Z,77.09
2022-12-08T11:48:32.118Z,79.29
2022-12-08T11:51:05.421Z,70.90
2022-12-08T11:53:37.711Z,78.60
2022-12-08T11:56:09.586Z,63.59
2022-12-08T11:58:41.050Z,62.65
2022-12-08T12:01:16.758Z,64.44
2022-12-08T12:03:48.088Z,74.30
2022-12-08T12:09:35.053Z,64.41
2022-12-08T12:12:16.530Z,71.35
2022-12-08T12:15:11.835Z,72.46
2022-12-08T12:17:43.847Z,74.80
2022-12-08T12:20:17.107Z,64.06
2022-12-08T12:22:48.528Z,74.96
2022-12-08T12:25:23.880Z,75.51
2022-12-08T12:27:57.108Z,75.65
2022-12-08T12:30:26.247Z,64.49
2022-12-08T12:32:56.751Z,76.93
2022-12-08T12:35:33.135Z,79.63
2022-12-08T12:38:04.537Z,73.48
2022-12-08T12:40:39.608Z,77.48
2022-12-08T12:43:31.061Z,79.26
2022-12-08T12:46:41.785Z,78.89
2022-12-08T12:49:51.450Z,77.22
2022-12-08T12:52:46.732Z,79.77
2022-12-08T12:55:29.417Z,81.20
2022-12-08T12:57:57.475Z,66.58
2022-12-08T13:00:25.595Z,64.00
2022-12-08T13:02:54.261Z,63.60
2022-12-08T13:05:24.233Z,64.15
2022-12-08T13:07:54.476Z,63.17
2022-12-08T13:10:25.043Z,64.72
2022-12-08T13:13:07.124Z,79.12
2022-12-08T13:15:36.495Z,80.16
2022-12-08T13:18:04.068Z,81.15
2022-12-08T13:20:30.978Z,80.83
2022-12-08T13:23:13.666Z,81.29
2022-12-08T13:25:51.496Z,80.71
2022-12-08T13:28:29.421Z,81.01
2022-12-08T13:30:58.215Z,81.19
2022-12-08T13:33:29.288Z,81.99
2022-12-08T13:36:13.263Z,81.18
2022-12-08T13:38:42.968Z,81.75
2022-12-08T13:41:13.847Z,81.63
2022-12-08T13:44:02.543Z,82.39
2022-12-08T13:58:03.022Z,82.03
2022-12-08T14:00:29.682Z,81.99
2022-12-08T14:02:58.492Z,81.83
2022-12-08T14:05:55.153Z,81.81
2022-12-08T14:08:36.267Z,81.94
2022-12-08T14:11:07.947Z,82.70
2022-12-08T14:13:35.870Z,81.76
2022-12-08T14:16:02.544Z,81.75
2022-12-08T14:18:31.535Z,81.96
2022-12-08T14:23:50.435Z,81.96
2022-12-08T14:26:17.891Z,82.69
2022-12-08T14:28:45.883Z,81.92
2022-12-08T14:31:14.385Z,82.77
2022-12-08T14:33:41.360Z,82.71
2022-12-08T14:36:10.630Z,82.41
2022-12-08T14:38:37.339Z,82.15
2022-12-08T14:41:05.773Z,82.56
2022-12-08T14:43:33.055Z,82.73
2022-12-08T14:46:03.798Z,81.90
2022-12-08T14:48:42.690Z,82.81
2022-12-08T14:51:16.166Z,82.27
2022-12-08T14:53:46.459Z,82.44
2022-12-08T14:56:20.616Z,82.88
2022-12-08T14:58:48.932Z,81.92
2022-12-08T15:01:23.295Z,81.80
2022-12-08T15:03:51.521Z,82.51
2022-12-08T15:06:21.946Z,81.78
2022-12-08T15:08:54.791Z,81.75
2022-12-08T15:11:30.889Z,82.07
2022-12-08T15:13:57.798Z,81.69
2022-12-08T15:16:32.010Z,81.73
2022-12-08T15:19:05.736Z,82.33
2022-12-08T15:21:37.868Z,82.72
2022-12-08T15:24:04.853Z,82.61
2022-12-08T15:26:39.047Z,82.46
2022-12-08T15:29:11.073Z,82.38
2022-12-08T15:31:39.109Z,81.76
2022-12-08T15:34:05.672Z,81.51
2022-12-08T15:36:32.260Z,81.33
2022-12-08T15:38:59.017Z,80.99
2022-12-08T15:41:25.552Z,81.86
2022-12-08T15:43:52.112Z,82.07
2022-12-08T15:46:18.719Z,82.64
2022-12-08T15:48:46.735Z,82.43
2022-12-08T15:51:13.273Z,82.48
2022-12-08T15:53:39.849Z,82.19
2022-12-08T15:58:56.623Z,81.72
2022-12-08T16:01:24.589Z,81.84
2022-12-08T16:09:30.977Z,81.29
2022-12-08T16:12:16.186Z,82.24
2022-12-08T16:17:31.512Z,81.96
2022-12-08T16:19:59.624Z,82.24
2022-12-08T16:25:20.666Z,81.53
2022-12-08T16:30:36.269Z,81.63
2022-12-08T16:33:02.858Z,82.55
2022-12-08T16:35:31.251Z,81.83
2022-12-08T16:37:57.835Z,81.67
2022-12-08T16:40:24.759Z,82.40
2022-12-08T16:42:51.301Z,81.61
2022-12-08T16:45:19.520Z,82.13
2022-12-08T16:47:47.739Z,82.11
2022-12-08T16:50:16.550Z,81.95
2022-12-08T16:52:44.585Z,81.67
2022-12-08T16:55:13.095Z,81.77
2022-12-08T16:57:40.339Z,82.51
2022-12-08T17:00:09.520Z,81.72
2022-12-08T17:02:36.110Z,81.82
2022-12-08T17:05:03.574Z,82.06
2022-12-08T17:07:30.396Z,81.76
2022-12-08T17:09:58.887Z,81.61
2022-12-08T17:12:25.412Z,82.25
2022-12-08T17:14:51.922Z,81.76
2022-12-08T17:17:18.465Z,81.72
2022-12-08T17:19:45.466Z,81.84
2022-12-08T17:22:12.000Z,81.45
2022-12-08T17:24:38.615Z,81.52
2022-12-08T17:27:06.805Z,81.45
2022-12-08T17:29:34.506Z,81.67
2022-12-08T17:32:01.250Z,82.06
2022-12-08T17:34:28.117Z,82.20
2022-12-08T17:36:55.057Z,81.56
2022-12-08T17:39:21.662Z,81.37
2022-12-08T17:41:48.244Z,81.51
2022-12-08T17:44:18.424Z,82.35
2022-12-08T17:46:52.118Z,81.95
2022-12-08T17:49:21.622Z,82.19
2022-12-08T17:51:49.059Z,81.87
2022-12-08T17:54:16.296Z,82.17
2022-12-08T17:56:43.233Z,81.83
2022-12-08T17:59:10.477Z,82.04
2022-12-08T18:01:38.536Z,82.09
2022-12-08T18:04:06.497Z,78.89
2022-12-08T18:06:33.514Z,83.30
2022-12-08T18:09:01.079Z,81.95
2022-12-08T18:11:28.822Z,82.12
2022-12-08T18:13:56.412Z,81.59
2022-12-08T18:16:25.381Z,82.14
2022-12-08T18:18:53.745Z,82.26
2022-12-08T18:21:23.517Z,81.84
2022-12-08T18:23:51.621Z,81.38
2022-12-08T18:26:18.422Z,81.54
2022-12-08T18:28:45.040Z,82.50
2022-12-08T18:31:13.885Z,81.56
2022-12-08T18:33:41.805Z,81.46
2022-12-08T18:36:12.625Z,81.53
2022-12-08T18:38:39.382Z,75.34
2022-12-08T18:41:07.935Z,75.20
2022-12-08T18:43:34.649Z,82.48
2022-12-08T18:46:02.278Z,82.13
2022-12-08T18:48:28.878Z,80.50
2022-12-08T18:50:55.508Z,82.58
2022-12-08T18:53:23.435Z,82.17
2022-12-08T18:55:50.987Z,82.00
2022-12-08T18:58:17.743Z,81.44
2022-12-08T19:00:44.605Z,81.91
2022-12-08T19:03:11.500Z,81.00
2022-12-08T19:05:38.529Z,82.09
2022-12-08T19:08:05.171Z,81.73
2022-12-08T19:10:34.917Z,81.88
2022-12-08T19:13:01.410Z,81.98
2022-12-08T19:15:28.061Z,82.04
2022-12-08T19:17:54.676Z,81.71
2022-12-08T19:20:21.257Z,81.25
2022-12-08T19:22:47.811Z,81.28
2022-12-08T19:25:14.392Z,81.48
2022-12-08T19:27:42.327Z,81.63
2022-12-08T19:30:10.514Z,81.58
2022-12-08T19:32:37.052Z,81.54
2022-12-08T19:35:07.226Z,81.33
2022-12-08T19:37:33.927Z,81.37
2022-12-08T19:40:18.921Z,82.07
2022-12-08T19:43:05.786Z,81.54
2022-12-08T19:45:35.224Z,81.44
2022-12-08T19:48:01.932Z,81.63
2022-12-08T19:50:37.871Z,81.70
2022-12-08T19:53:07.124Z,80.16
2022-12-08T19:55:34.252Z,81.82
2022-12-08T19:58:02.432Z,81.22
2022-12-08T20:00:30.271Z,76.74
2022-12-08T20:02:57.596Z,81.24
2022-12-08T20:05:24.456Z,81.93
2022-12-08T20:07:52.208Z,81.92
2022-12-08T20:10:22.054Z,81.91
2022-12-08T20:12:48.854Z,81.60
2022-12-08T20:15:16.796Z,81.88
2022-12-08T20:17:43.565Z,81.88
2022-12-08T20:20:12.155Z,81.54
2022-12-08T20:22:38.839Z,81.44
2022-12-08T20:25:06.251Z,82.00
2022-12-08T20:27:33.281Z,81.55
2022-12-08T20:29:59.865Z,81.86
2022-12-08T20:32:27.804Z,81.05
2022-12-08T20:34:54.354Z,81.74
2022-12-08T20:37:20.897Z,82.09
2022-12-08T20:39:47.470Z,69.04
2022-12-08T20:42:14.145Z,82.66
2022-12-08T20:44:44.153Z,82.20
2022-12-08T20:47:12.028Z,73.88
2022-12-08T20:49:40.307Z,82.37
2022-12-08T20:52:07.774Z,82.08
2022-12-08T20:54:35.438Z,81.25
2022-12-08T20:57:02.110Z,81.33
2022-12-08T20:59:29.192Z,81.36
2022-12-08T21:01:55.964Z,81.56
2022-12-08T21:04:23.344Z,81.61
2022-12-08T21:06:51.592Z,81.04
2022-12-08T21:09:18.561Z,81.52
2022-12-08T21:11:45.418Z,81.48
2022-12-08T21:14:11.983Z,74.86
2022-12-08T21:16:38.802Z,81.62
2022-12-08T21:19:06.261Z,81.63
2022-12-08T21:21:33.033Z,69.29
2022-12-08T21:24:01.148Z,83.89
2022-12-08T21:26:27.860Z,82.02
2022-12-08T21:28:54.980Z,81.96
2022-12-08T21:31:21.918Z,81.58
2022-12-08T21:33:49.202Z,81.27
2022-12-08T21:36:18.392Z,81.71
2022-12-08T21:38:45.618Z,71.53
2022-12-08T21:41:15.526Z,82.87
2022-12-08T21:43:43.231Z,82.03
2022-12-08T21:46:15.416Z,76.27
2022-12-08T21:48:42.147Z,77.33
2022-12-08T21:51:08.981Z,78.08
2022-12-08T21:53:35.775Z,88.08
2022-12-08T21:56:02.602Z,84.55
2022-12-08T21:58:32.658Z,82.64
2022-12-08T22:01:05.184Z,76.04
2022-12-08T22:03:31.899Z,82.07
2022-12-08T22:06:04.174Z,82.05
2022-12-08T22:08:30.942Z,81.71
2022-12-08T22:10:57.652Z,81.52
2022-12-08T22:13:24.273Z,81.22
2022-12-08T22:15:57.338Z,81.80
2022-12-08T22:18:24.514Z,81.50
2022-12-08T22:20:51.287Z,81.70
2022-12-08T22:23:18.329Z,81.89
2022-12-08T22:25:45.186Z,81.56
2022-12-08T22:28:12.584Z,81.71
2022-12-08T22:30:39.741Z,82.43
2022-12-08T22:33:07.794Z,82.12
2022-12-08T22:35:34.456Z,81.71
2022-12-08T22:38:01.124Z,81.41
2022-12-08T22:40:27.781Z,81.48
2022-12-08T22:42:54.462Z,81.76
2022-12-08T22:45:21.423Z,81.47
2022-12-08T22:47:48.212Z,81.85
2022-12-08T22:50:16.377Z,79.34
2022-12-08T22:52:43.090Z,72.41
2022-12-08T22:55:10.150Z,82.52
2022-12-08T22:57:36.895Z,82.18
2022-12-08T23:00:05.970Z,70.58
2022-12-08T23:02:33.040Z,84.66
2022-12-08T23:04:59.836Z,82.73
2022-12-08T23:07:27.806Z,82.36
2022-12-08T23:09:54.545Z,81.67
2022-12-08T23:12:21.401Z,81.72
2022-12-08T23:14:48.000Z,81.80
2022-12-08T23:17:14.609Z,81.84
2022-12-08T23:19:41.391Z,81.63
2022-12-08T23:22:07.988Z,81.53
2022-12-08T23:24:35.926Z,81.70
2022-12-08T23:27:02.793Z,81.74
2022-12-08T23:29:29.381Z,81.63
2022-12-08T23:31:56.038Z,81.25
2022-12-08T23:34:22.704Z,81.82
2022-12-08T23:36:49.497Z,81.92
2022-12-08T23:39:16.395Z,81.39
2022-12-08T23:41:44.563Z,81.60
2022-12-08T23:44:12.023Z,81.30
2022-12-08T23:46:38.672Z,81.31
2022-12-08T23:49:05.374Z,81.33
2022-12-08T23:51:32.022Z,81.44
2022-12-08T23:53:58.558Z,81.68
2022-12-08T23:56:30.000Z,79.50
2022-12-08T23:59:00.352Z,81.53
